VIV4177 MMLO-MMMY
Flight info
| Callsign | VIV4177 |
|---|---|
| Flight time | 1h 4m |
| Altitude | 37000 |
| Route | KARIR UJ31 SLW SLW1B |
| Aircraft | A20N/M-SDE2E3FGHIRWXY/LB1 |
Departure
| Time | 2026-04-16 21:32 |
|---|---|
| Airport | Guanajuato International Airport (MMLO) |
Arrival
| Time | 2026-04-16 22:36 |
|---|---|
| Airport | Monterrey International Airport (MMMY) |
| Time | Latitude | Longitude | Altitude | Speed | Heading |
|---|---|---|---|---|---|
| 2026-04-16 21:05 | 20.98630 | -101.47811 | 5971 ft | 0 kts | 225° |
| 2026-04-16 21:24 | 20.98637 | -101.47804 | 5972 ft | 4 kts | 222° |
| 2026-04-16 21:24 | 20.98658 | -101.47786 | 5971 ft | 4 kts | 206° |
| 2026-04-16 21:25 | 20.98682 | -101.47779 | 5971 ft | 4 kts | 160° |
| 2026-04-16 21:25 | 20.98694 | -101.47786 | 5971 ft | 1 kts | 135° |
| 2026-04-16 21:25 | 20.98695 | -101.47787 | 5971 ft | 0 kts | 135° |
| 2026-04-16 21:27 | 20.98694 | -101.47787 | 5971 ft | 1 kts | 135° |
| 2026-04-16 21:27 | 20.98677 | -101.47766 | 5971 ft | 7 kts | 131° |
| 2026-04-16 21:28 | 20.98656 | -101.47713 | 5971 ft | 9 kts | 72° |
| 2026-04-16 21:28 | 20.98707 | -101.47649 | 5971 ft | 14 kts | 43° |
| 2026-04-16 21:28 | 20.98766 | -101.47588 | 5973 ft | 8 kts | 44° |
| 2026-04-16 21:28 | 20.98806 | -101.47532 | 5972 ft | 8 kts | 82° |
| 2026-04-16 21:29 | 20.98786 | -101.47503 | 5972 ft | 7 kts | 133° |
| 2026-04-16 21:29 | 20.98745 | -101.47456 | 5972 ft | 13 kts | 133° |
| 2026-04-16 21:29 | 20.98698 | -101.47404 | 5976 ft | 17 kts | 133° |
| 2026-04-16 21:30 | 20.98603 | -101.47298 | 5971 ft | 22 kts | 134° |
| 2026-04-16 21:30 | 20.98490 | -101.47172 | 5972 ft | 25 kts | 135° |
| 2026-04-16 21:30 | 20.98362 | -101.47035 | 5971 ft | 25 kts | 135° |
| 2026-04-16 21:30 | 20.98301 | -101.46976 | 5970 ft | 7 kts | 161° |
| 2026-04-16 21:31 | 20.98234 | -101.46967 | 5971 ft | 12 kts | 167° |
| 2026-04-16 21:31 | 20.98232 | -101.46914 | 5970 ft | 5 kts | 17° |
| 2026-04-16 21:31 | 20.98264 | -101.46933 | 5971 ft | 7 kts | 319° |
| 2026-04-16 21:31 | 20.98509 | -101.47205 | 5973 ft | 104 kts | 315° |
| 2026-04-16 21:32 | 20.99228 | -101.47973 | 6053 ft | 177 kts | 314° |
| 2026-04-16 21:32 | 21.00161 | -101.48919 | 7101 ft | 194 kts | 313° |
| 2026-04-16 21:32 | 21.01179 | -101.49993 | 8010 ft | 213 kts | 313° |
| 2026-04-16 21:32 | 21.02227 | -101.51113 | 8550 ft | 220 kts | 313° |
| 2026-04-16 21:33 | 21.03313 | -101.52344 | 9171 ft | 238 kts | 313° |
| 2026-04-16 21:33 | 21.04488 | -101.53696 | 9678 ft | 259 kts | 312° |
| 2026-04-16 21:33 | 21.05773 | -101.55167 | 10261 ft | 277 kts | 313° |
| 2026-04-16 21:33 | 21.07103 | -101.56665 | 11172 ft | 278 kts | 313° |
| 2026-04-16 21:34 | 21.08449 | -101.58161 | 12088 ft | 281 kts | 314° |
| 2026-04-16 21:34 | 21.09815 | -101.59673 | 12765 ft | 284 kts | 314° |
| 2026-04-16 21:34 | 21.11200 | -101.61204 | 13720 ft | 287 kts | 314° |
| 2026-04-16 21:34 | 21.12598 | -101.62747 | 14604 ft | 289 kts | 314° |
| 2026-04-16 21:35 | 21.14006 | -101.64303 | 15509 ft | 291 kts | 314° |
| 2026-04-16 21:35 | 21.15425 | -101.65872 | 16375 ft | 295 kts | 314° |
| 2026-04-16 21:35 | 21.16963 | -101.67332 | 17232 ft | 299 kts | 328° |
| 2026-04-16 21:35 | 21.18896 | -101.68101 | 17998 ft | 306 kts | 351° |
| 2026-04-16 21:36 | 21.21033 | -101.67953 | 18714 ft | 314 kts | 15° |
| 2026-04-16 21:36 | 21.22982 | -101.66869 | 19388 ft | 321 kts | 39° |
| 2026-04-16 21:36 | 21.24430 | -101.65015 | 20019 ft | 329 kts | 58° |
| 2026-04-16 21:36 | 21.25533 | -101.62840 | 20685 ft | 335 kts | 63° |
| 2026-04-16 21:37 | 21.26584 | -101.60596 | 21309 ft | 340 kts | 63° |
| 2026-04-16 21:37 | 21.27668 | -101.58314 | 21949 ft | 346 kts | 62° |
| 2026-04-16 21:37 | 21.28817 | -101.55970 | 22211 ft | 367 kts | 62° |
| 2026-04-16 21:37 | 21.30070 | -101.53473 | 22431 ft | 390 kts | 61° |
| 2026-04-16 21:38 | 21.31406 | -101.50846 | 22639 ft | 411 kts | 61° |
| 2026-04-16 21:38 | 21.32795 | -101.48120 | 22838 ft | 431 kts | 61° |
| 2026-04-16 21:38 | 21.34273 | -101.45222 | 23328 ft | 441 kts | 61° |
| 2026-04-16 21:38 | 21.35752 | -101.42316 | 23918 ft | 446 kts | 61° |
| 2026-04-16 21:39 | 21.37229 | -101.39412 | 24549 ft | 450 kts | 61° |
| 2026-04-16 21:39 | 21.38735 | -101.36450 | 25120 ft | 455 kts | 61° |
| 2026-04-16 21:39 | 21.40255 | -101.33459 | 25727 ft | 458 kts | 61° |
| 2026-04-16 21:39 | 21.41787 | -101.30442 | 26322 ft | 462 kts | 61° |
| 2026-04-16 21:40 | 21.43336 | -101.27387 | 26839 ft | 467 kts | 61° |
| 2026-04-16 21:40 | 21.44896 | -101.24310 | 27382 ft | 472 kts | 62° |
| 2026-04-16 21:40 | 21.46474 | -101.21194 | 27920 ft | 476 kts | 62° |
| 2026-04-16 21:40 | 21.48044 | -101.18092 | 28448 ft | 480 kts | 62° |
| 2026-04-16 21:41 | 21.49646 | -101.14927 | 28951 ft | 484 kts | 62° |
| 2026-04-16 21:41 | 21.51259 | -101.11735 | 29478 ft | 488 kts | 62° |
| 2026-04-16 21:41 | 21.52960 | -101.08562 | 29955 ft | 493 kts | 55° |
| 2026-04-16 21:41 | 21.55152 | -101.05722 | 30389 ft | 496 kts | 43° |
| 2026-04-16 21:42 | 21.57828 | -101.03377 | 30833 ft | 497 kts | 31° |
| 2026-04-16 21:42 | 21.60877 | -101.01633 | 31316 ft | 496 kts | 19° |
| 2026-04-16 21:42 | 21.64160 | -101.00571 | 31904 ft | 490 kts | 7° |
| 2026-04-16 21:42 | 21.67533 | -101.00192 | 32535 ft | 484 kts | 358° |
| 2026-04-16 21:43 | 21.70898 | -101.00097 | 33177 ft | 482 kts | 357° |
| 2026-04-16 21:43 | 21.74199 | -100.99939 | 33807 ft | 482 kts | 359° |
| 2026-04-16 21:43 | 21.77546 | -100.99648 | 34355 ft | 482 kts | 0° |
| 2026-04-16 21:43 | 21.80902 | -100.99258 | 34823 ft | 483 kts | 1° |
| 2026-04-16 21:44 | 21.84245 | -100.98816 | 35272 ft | 484 kts | 2° |
| 2026-04-16 21:44 | 21.87596 | -100.98351 | 35711 ft | 485 kts | 2° |
| 2026-04-16 21:44 | 21.90939 | -100.97881 | 36174 ft | 485 kts | 2° |
| 2026-04-16 21:44 | 21.94289 | -100.97412 | 36660 ft | 485 kts | 2° |
| 2026-04-16 21:45 | 21.97593 | -100.96951 | 36934 ft | 485 kts | 2° |
| 2026-04-16 21:45 | 22.04279 | -100.96009 | 37062 ft | 485 kts | 1° |
| 2026-04-16 21:46 | 22.10962 | -100.95080 | 37130 ft | 484 kts | 1° |
| 2026-04-16 21:46 | 22.17651 | -100.94153 | 37193 ft | 484 kts | 1° |
| 2026-04-16 21:47 | 22.24334 | -100.93232 | 37193 ft | 483 kts | 0° |
| 2026-04-16 21:47 | 22.30947 | -100.93043 | 37192 ft | 477 kts | 354° |
| 2026-04-16 21:48 | 22.37593 | -100.93043 | 37157 ft | 478 kts | 354° |
| 2026-04-16 21:48 | 22.44256 | -100.93034 | 37083 ft | 478 kts | 354° |
| 2026-04-16 21:49 | 22.50912 | -100.93031 | 36874 ft | 478 kts | 354° |
| 2026-04-16 21:49 | 22.57568 | -100.93028 | 36873 ft | 478 kts | 354° |
| 2026-04-16 21:50 | 22.64180 | -100.93026 | 36871 ft | 477 kts | 354° |
| 2026-04-16 21:50 | 22.70834 | -100.93024 | 36869 ft | 477 kts | 354° |
| 2026-04-16 21:51 | 22.77482 | -100.93019 | 36876 ft | 477 kts | 353° |
| 2026-04-16 21:51 | 22.84126 | -100.93016 | 36874 ft | 477 kts | 353° |
| 2026-04-16 21:52 | 22.90728 | -100.93012 | 36877 ft | 477 kts | 354° |
| 2026-04-16 21:52 | 22.97403 | -100.93008 | 36878 ft | 477 kts | 354° |
| 2026-04-16 21:53 | 23.04044 | -100.93005 | 36889 ft | 477 kts | 354° |
| 2026-04-16 21:53 | 23.10638 | -100.93001 | 36886 ft | 477 kts | 353° |
| 2026-04-16 21:54 | 23.17277 | -100.92998 | 36895 ft | 477 kts | 353° |
| 2026-04-16 21:54 | 23.23927 | -100.92999 | 36897 ft | 477 kts | 353° |
| 2026-04-16 21:55 | 23.30577 | -100.93000 | 36895 ft | 477 kts | 353° |
| 2026-04-16 21:55 | 23.37189 | -100.93000 | 36914 ft | 478 kts | 353° |
| 2026-04-16 21:56 | 23.43851 | -100.92999 | 36895 ft | 479 kts | 353° |
| 2026-04-16 21:56 | 23.50519 | -100.93002 | 36893 ft | 479 kts | 353° |
| 2026-04-16 21:57 | 23.57191 | -100.93004 | 36892 ft | 480 kts | 353° |
| 2026-04-16 21:57 | 23.63877 | -100.93007 | 36883 ft | 479 kts | 353° |
| 2026-04-16 21:58 | 23.70553 | -100.93010 | 36884 ft | 480 kts | 353° |
| 2026-04-16 21:58 | 23.77196 | -100.93013 | 36872 ft | 480 kts | 353° |
| 2026-04-16 21:59 | 23.83882 | -100.93013 | 36870 ft | 479 kts | 353° |
| 2026-04-16 21:59 | 23.90548 | -100.93011 | 36859 ft | 479 kts | 353° |
| 2026-04-16 22:00 | 23.97213 | -100.93010 | 36855 ft | 478 kts | 353° |
| 2026-04-16 22:00 | 24.03861 | -100.93007 | 36856 ft | 477 kts | 353° |
| 2026-04-16 22:01 | 24.10492 | -100.93007 | 36848 ft | 476 kts | 353° |
| 2026-04-16 22:01 | 24.17075 | -100.93006 | 36847 ft | 476 kts | 353° |
| 2026-04-16 22:02 | 24.23698 | -100.93005 | 36836 ft | 475 kts | 353° |
| 2026-04-16 22:02 | 24.30308 | -100.93004 | 36836 ft | 475 kts | 352° |
| 2026-04-16 22:03 | 24.36920 | -100.93002 | 36839 ft | 474 kts | 352° |
| 2026-04-16 22:03 | 24.43488 | -100.93001 | 36837 ft | 475 kts | 353° |
| 2026-04-16 22:04 | 24.50103 | -100.93000 | 36837 ft | 475 kts | 352° |
| 2026-04-16 22:04 | 24.56713 | -100.92999 | 36838 ft | 475 kts | 353° |
| 2026-04-16 22:05 | 24.63329 | -100.92997 | 36727 ft | 476 kts | 352° |
| 2026-04-16 22:05 | 24.66650 | -100.92996 | 36474 ft | 476 kts | 352° |
| 2026-04-16 22:05 | 24.69957 | -100.92995 | 36203 ft | 475 kts | 352° |
| 2026-04-16 22:05 | 24.73272 | -100.92995 | 35608 ft | 477 kts | 352° |
| 2026-04-16 22:06 | 24.76571 | -100.92997 | 34743 ft | 481 kts | 353° |
| 2026-04-16 22:06 | 24.83259 | -100.92997 | 33162 ft | 478 kts | 353° |
| 2026-04-16 22:06 | 24.86576 | -100.92997 | 32390 ft | 476 kts | 354° |
| 2026-04-16 22:07 | 24.89876 | -100.92999 | 31556 ft | 474 kts | 354° |
| 2026-04-16 22:07 | 24.93183 | -100.93003 | 30706 ft | 474 kts | 354° |
| 2026-04-16 22:07 | 24.96468 | -100.93005 | 29970 ft | 470 kts | 354° |
| 2026-04-16 22:07 | 24.99720 | -100.93004 | 29451 ft | 466 kts | 354° |
| 2026-04-16 22:08 | 25.02959 | -100.93004 | 28887 ft | 463 kts | 354° |
| 2026-04-16 22:08 | 25.06164 | -100.93002 | 28301 ft | 457 kts | 354° |
| 2026-04-16 22:08 | 25.09315 | -100.92999 | 27743 ft | 448 kts | 355° |
| 2026-04-16 22:08 | 25.12408 | -100.92996 | 27196 ft | 441 kts | 355° |
| 2026-04-16 22:09 | 25.15450 | -100.92995 | 26637 ft | 433 kts | 355° |
| 2026-04-16 22:09 | 25.18440 | -100.92997 | 26088 ft | 427 kts | 355° |
| 2026-04-16 22:09 | 25.21407 | -100.92996 | 25497 ft | 422 kts | 355° |
| 2026-04-16 22:09 | 25.24320 | -100.92996 | 25004 ft | 415 kts | 355° |
| 2026-04-16 22:10 | 25.27122 | -100.92996 | 24494 ft | 411 kts | 355° |
| 2026-04-16 22:10 | 25.30004 | -100.92998 | 23951 ft | 406 kts | 355° |
| 2026-04-16 22:10 | 25.32821 | -100.92997 | 23454 ft | 401 kts | 355° |
| 2026-04-16 22:10 | 25.35600 | -100.92993 | 22953 ft | 405 kts | 356° |
| 2026-04-16 22:11 | 25.38542 | -100.92998 | 22423 ft | 435 kts | 356° |
| 2026-04-16 22:11 | 25.41619 | -100.93005 | 21860 ft | 445 kts | 356° |
| 2026-04-16 22:11 | 25.44719 | -100.93006 | 21297 ft | 443 kts | 356° |
| 2026-04-16 22:11 | 25.47777 | -100.92804 | 20672 ft | 440 kts | 7° |
| 2026-04-16 22:12 | 25.50679 | -100.91851 | 20210 ft | 431 kts | 22° |
| 2026-04-16 22:12 | 25.53164 | -100.90191 | 20000 ft | 416 kts | 37° |
| 2026-04-16 22:12 | 25.55163 | -100.87890 | 19568 ft | 406 kts | 54° |
| 2026-04-16 22:12 | 25.56407 | -100.85167 | 19337 ft | 403 kts | 73° |
| 2026-04-16 22:13 | 25.56862 | -100.82113 | 19292 ft | 402 kts | 91° |
| 2026-04-16 22:13 | 25.56501 | -100.79066 | 19247 ft | 397 kts | 107° |
| 2026-04-16 22:13 | 25.55772 | -100.76125 | 19201 ft | 396 kts | 107° |
| 2026-04-16 22:13 | 25.55214 | -100.73129 | 19144 ft | 397 kts | 101° |
| 2026-04-16 22:14 | 25.54920 | -100.70098 | 19096 ft | 395 kts | 96° |
| 2026-04-16 22:14 | 25.54809 | -100.67047 | 19061 ft | 398 kts | 93° |
| 2026-04-16 22:14 | 25.54792 | -100.65016 | 19051 ft | 399 kts | 92° |
| 2026-04-16 22:14 | 25.54807 | -100.61960 | 19036 ft | 395 kts | 91° |
| 2026-04-16 22:15 | 25.54847 | -100.57903 | 19016 ft | 398 kts | 91° |
| 2026-04-16 22:15 | 25.54873 | -100.54840 | 19011 ft | 397 kts | 91° |
| 2026-04-16 22:15 | 25.54896 | -100.51772 | 19006 ft | 399 kts | 91° |
| 2026-04-16 22:15 | 25.54915 | -100.48704 | 19006 ft | 398 kts | 92° |
| 2026-04-16 22:16 | 25.54927 | -100.46674 | 18992 ft | 398 kts | 92° |
| 2026-04-16 22:16 | 25.54941 | -100.43619 | 18843 ft | 396 kts | 91° |
| 2026-04-16 22:16 | 25.54954 | -100.40569 | 18748 ft | 398 kts | 91° |
| 2026-04-16 22:16 | 25.54969 | -100.37508 | 18638 ft | 394 kts | 91° |
| 2026-04-16 22:17 | 25.54982 | -100.34475 | 18555 ft | 395 kts | 91° |
| 2026-04-16 22:17 | 25.54996 | -100.31436 | 18396 ft | 393 kts | 91° |
| 2026-04-16 22:17 | 25.55011 | -100.28415 | 18320 ft | 390 kts | 91° |
| 2026-04-16 22:17 | 25.55350 | -100.25465 | 18231 ft | 383 kts | 75° |
| 2026-04-16 22:18 | 25.56477 | -100.22862 | 18112 ft | 370 kts | 54° |
| 2026-04-16 22:18 | 25.58267 | -100.20889 | 17836 ft | 360 kts | 34° |
| 2026-04-16 22:18 | 25.60414 | -100.19508 | 17365 ft | 355 kts | 24° |
| 2026-04-16 22:18 | 25.62608 | -100.18292 | 16971 ft | 348 kts | 24° |
| 2026-04-16 22:19 | 25.64729 | -100.17055 | 16709 ft | 343 kts | 26° |
| 2026-04-16 22:19 | 25.66809 | -100.15741 | 16444 ft | 345 kts | 28° |
| 2026-04-16 22:19 | 25.68837 | -100.14385 | 16174 ft | 342 kts | 30° |
| 2026-04-16 22:19 | 25.70849 | -100.12997 | 15908 ft | 340 kts | 30° |
| 2026-04-16 22:20 | 25.72851 | -100.11599 | 15639 ft | 339 kts | 31° |
| 2026-04-16 22:20 | 25.74842 | -100.10204 | 15377 ft | 337 kts | 31° |
| 2026-04-16 22:20 | 25.76825 | -100.08815 | 15130 ft | 336 kts | 31° |
| 2026-04-16 22:20 | 25.78794 | -100.07436 | 15029 ft | 330 kts | 31° |
| 2026-04-16 22:21 | 25.80689 | -100.06109 | 14995 ft | 314 kts | 31° |
| 2026-04-16 22:21 | 25.82487 | -100.04848 | 14993 ft | 297 kts | 31° |
| 2026-04-16 22:21 | 25.84186 | -100.03657 | 14993 ft | 281 kts | 31° |
| 2026-04-16 22:21 | 25.85791 | -100.02531 | 14986 ft | 266 kts | 31° |
| 2026-04-16 22:22 | 25.87323 | -100.01458 | 14910 ft | 254 kts | 31° |
| 2026-04-16 22:22 | 25.88778 | -100.00439 | 14764 ft | 247 kts | 31° |
| 2026-04-16 22:22 | 25.90229 | -99.99453 | 14528 ft | 238 kts | 24° |
| 2026-04-16 22:22 | 25.91808 | -99.99050 | 14006 ft | 233 kts | 353° |
| 2026-04-16 22:23 | 25.93282 | -99.99631 | 13710 ft | 227 kts | 317° |
| 2026-04-16 22:23 | 25.94299 | -100.00958 | 13414 ft | 223 kts | 298° |
| 2026-04-16 22:23 | 25.95105 | -100.02414 | 13104 ft | 221 kts | 296° |
| 2026-04-16 22:23 | 25.95885 | -100.03886 | 12789 ft | 221 kts | 297° |
| 2026-04-16 22:24 | 25.96674 | -100.05349 | 12546 ft | 220 kts | 297° |
| 2026-04-16 22:24 | 25.97481 | -100.06802 | 12449 ft | 219 kts | 297° |
| 2026-04-16 22:24 | 25.98286 | -100.08223 | 12141 ft | 216 kts | 298° |
| 2026-04-16 22:24 | 25.99091 | -100.09636 | 11635 ft | 217 kts | 298° |
| 2026-04-16 22:25 | 25.99897 | -100.11050 | 11117 ft | 218 kts | 298° |
| 2026-04-16 22:25 | 26.00699 | -100.12454 | 10775 ft | 216 kts | 298° |
| 2026-04-16 22:25 | 26.01515 | -100.13888 | 10482 ft | 219 kts | 298° |
| 2026-04-16 22:25 | 26.02331 | -100.15320 | 10132 ft | 217 kts | 300° |
| 2026-04-16 22:26 | 26.03130 | -100.16723 | 9832 ft | 218 kts | 299° |
| 2026-04-16 22:26 | 26.03940 | -100.18146 | 9510 ft | 216 kts | 300° |
| 2026-04-16 22:26 | 26.04699 | -100.19587 | 9210 ft | 214 kts | 289° |
| 2026-04-16 22:26 | 26.04798 | -100.21195 | 8929 ft | 209 kts | 254° |
| 2026-04-16 22:27 | 26.04085 | -100.22549 | 8541 ft | 203 kts | 221° |
| 2026-04-16 22:27 | 26.02901 | -100.23399 | 8028 ft | 204 kts | 208° |
| 2026-04-16 22:27 | 26.01678 | -100.24196 | 7673 ft | 201 kts | 209° |
| 2026-04-16 22:27 | 26.00444 | -100.25010 | 7456 ft | 207 kts | 209° |
| 2026-04-16 22:28 | 25.99214 | -100.25831 | 7184 ft | 206 kts | 210° |
| 2026-04-16 22:28 | 25.97989 | -100.26657 | 7032 ft | 206 kts | 210° |
| 2026-04-16 22:28 | 25.96775 | -100.27478 | 6956 ft | 198 kts | 209° |
| 2026-04-16 22:28 | 25.95649 | -100.28242 | 6796 ft | 183 kts | 209° |
| 2026-04-16 22:29 | 25.94565 | -100.28975 | 6440 ft | 182 kts | 209° |
| 2026-04-16 22:29 | 25.93480 | -100.29707 | 6035 ft | 183 kts | 208° |
| 2026-04-16 22:29 | 25.92393 | -100.30441 | 5634 ft | 183 kts | 207° |
| 2026-04-16 22:29 | 25.91307 | -100.31179 | 5266 ft | 183 kts | 206° |
| 2026-04-16 22:30 | 25.90152 | -100.31651 | 4778 ft | 172 kts | 173° |
| 2026-04-16 22:30 | 25.89147 | -100.31238 | 4601 ft | 155 kts | 133° |
| 2026-04-16 22:30 | 25.88526 | -100.30239 | 4303 ft | 158 kts | 116° |
| 2026-04-16 22:30 | 25.87979 | -100.29202 | 3942 ft | 152 kts | 116° |
| 2026-04-16 22:31 | 25.87460 | -100.28233 | 3765 ft | 147 kts | 116° |
| 2026-04-16 22:31 | 25.86937 | -100.27242 | 3712 ft | 150 kts | 118° |
| 2026-04-16 22:31 | 25.86411 | -100.26259 | 3703 ft | 145 kts | 119° |
| 2026-04-16 22:31 | 25.85891 | -100.25310 | 3689 ft | 139 kts | 120° |
| 2026-04-16 22:32 | 25.85425 | -100.24468 | 3700 ft | 118 kts | 120° |
| 2026-04-16 22:32 | 25.84989 | -100.23679 | 3671 ft | 124 kts | 120° |
| 2026-04-16 22:32 | 25.84527 | -100.22837 | 3509 ft | 133 kts | 120° |
| 2026-04-16 22:32 | 25.84042 | -100.21962 | 3276 ft | 130 kts | 119° |
| 2026-04-16 22:33 | 25.83534 | -100.21114 | 3002 ft | 133 kts | 120° |
| 2026-04-16 22:33 | 25.83057 | -100.20285 | 2905 ft | 122 kts | 118° |
| 2026-04-16 22:33 | 25.82711 | -100.19442 | 2820 ft | 121 kts | 117° |
| 2026-04-16 22:33 | 25.82291 | -100.18609 | 2632 ft | 126 kts | 124° |
| 2026-04-16 22:34 | 25.81761 | -100.17824 | 2421 ft | 127 kts | 128° |
| 2026-04-16 22:34 | 25.81211 | -100.17055 | 2245 ft | 127 kts | 128° |
| 2026-04-16 22:34 | 25.80690 | -100.16247 | 2081 ft | 129 kts | 120° |
| 2026-04-16 22:34 | 25.80360 | -100.15313 | 1988 ft | 127 kts | 109° |
| 2026-04-16 22:35 | 25.79910 | -100.14479 | 1919 ft | 127 kts | 122° |
| 2026-04-16 22:35 | 25.79371 | -100.13684 | 1753 ft | 129 kts | 117° |
| 2026-04-16 22:35 | 25.78969 | -100.12809 | 1573 ft | 126 kts | 111° |
| 2026-04-16 22:35 | 25.78556 | -100.11948 | 1368 ft | 123 kts | 120° |
| 2026-04-16 22:36 | 25.78130 | -100.11187 | 1281 ft | 100 kts | 120° |
| 2026-04-16 22:36 | 25.77985 | -100.10922 | 1280 ft | 0 kts | 121° |
| 2026-04-16 22:36 | 25.77963 | -100.10882 | 1280 ft | 14 kts | 121° |
| 2026-04-16 22:37 | 25.77897 | -100.10766 | 1280 ft | 19 kts | 129° |
| 2026-04-16 22:37 | 25.77859 | -100.10755 | 1280 ft | 1 kts | 237° |
| 2026-04-16 22:37 | 25.77857 | -100.10814 | 1280 ft | 11 kts | 269° |
| 2026-04-16 22:37 | 25.77855 | -100.10932 | 1280 ft | 19 kts | 269° |
| 2026-04-16 22:38 | 25.77857 | -100.11032 | 1280 ft | 9 kts | 274° |
| 2026-04-16 22:38 | 25.77867 | -100.11125 | 1280 ft | 15 kts | 292° |
| 2026-04-16 22:38 | 25.77920 | -100.11223 | 1281 ft | 13 kts | 302° |
| 2026-04-16 22:38 | 25.77967 | -100.11306 | 1281 ft | 11 kts | 302° |
| 2026-04-16 22:39 | 25.77950 | -100.11360 | 1282 ft | 9 kts | 213° |
| 2026-04-16 22:39 | 25.77917 | -100.11382 | 1281 ft | 5 kts | 212° |
| 2026-04-16 22:39 | 25.77912 | -100.11386 | 1281 ft | 0 kts | 213° |